Terminal Aerodrome Forecast
Issued by NWS Austin/San Antonio, TX

Home | Current Version | Previous Version | Text Only | Print | Product List | Glossary On
Versions: 1 2 3 4 5 6 7 8 9 10 11 12 13 14 15 16 17 18 19 20 21 22 23 24 25 26 27 28 29 30 31
691
FTUS44 KEWX 211136
TAFDRT
TAF
KDRT 211136Z 2112/2212 11005KT 1/2SM FG OVC002
     FM211900 30005KT 3SM BR OVC010
     FM212100 33010KT P6SM SCT250=

USA.gov is the U.S. government's official web portal to all federal, state and local government web resources and services.